Aérodrome :
LOGIN :

S'inscrire | Disclaimer

   EN    FR    IT 

 










Légende :    VFR   VFR Marginal   IFR   IFR Intensif   IFR Très Intensif
Visi : 
Plafond : 
>= 8 km
>= 3000ft
5 à 8 km
1000 à 3000 ft
1500m à 5 km
500 à 1000 ft
800 à 1500m
200 à 500 ft
< 800m
< 200 ft
Symboles :   Orages  Brouillard  Fortes neiges  Fortes précipitations  Vent > 20 kt
SIGMETs :   Divers  Orages  Givrage  Turbulence  Onde Orograph.  Cendres Volcan.







- Altitude de l'aérodrome : 309 ft
- Code IATA : FNI
- Voir les cartes d'approche


LFTW - Nîmes Garons

DERNIER METAR :
  • 171700Z AUTO 21008KT 180V260 CAVOK 32/16 Q1016 NOSIG

METARs EXPIRÉS :
  • 171630Z AUTO 23008KT 200V260 CAVOK 32/16 Q1016 NOSIG
  • 171600Z AUTO 22009KT 190V270 CAVOK 32/16 Q1016 NOSIG
  • 171530Z AUTO 21009KT 170V240 CAVOK 33/16 Q1016 NOSIG
  • 171500Z AUTO 24010KT 210V280 CAVOK 34/17 Q1016 NOSIG
  • 171430Z AUTO 21009KT 180V260 9999 FEW012 34/17 Q1016 NOSIG

TAF TAF LFTW
Valide du 17 à 15h jusqu'au 18 à 15h UTC


171400Z 1715/1815 VRB02KT CAVOK
TEMPO 1715/1720 20012KT
BECMG 1810/1812 18012KT
Pas de NOTAMs connus pour ce terrain.



MET'MAP, la Météo Aéronautique d'un coup d'oeil ! - Copyright ORBIFLY Décembre 2007 - Disclaimer

ORBIFLY MET'MAP TEAM :

Programmation & Développement : Alexandra Zaïnal
Conception & Développement : Baudouin d'Aumeries
Co-Programmation & Développement : Marc-Olivier Méhu
Soutien technique & logistique : Manuel Goepfert

Contact : metmap@orbifly.com




SOURCES & CREDITS :

   NOAA